Akaska, South Dakota
Current Conditions -  °F | °C
As of 2:52 PM on Thursday 23 Oct 2014 (Local Time) from KMBG Reporting Station
Clear Clear  
Wind Chill: 69°   Ceiling: Unl
Heat Index: 69°   Visibility: 10mi
Dew Point: 43°   Wind: 7mph
Humidity: 39%   Direction: 150°SSE
Pressure: 29.85"   Gusts: NA
Location:  45.33°N, 100.12°W
Report Text: KMBG 231952Z AUTO 15006KT 10SM CLR 21/06 A2985 RMK AO2 SLP110 T02060061
Loading
Personal Weather Stations






























Interactive Weather Map New forecast layout! Learn more

10-Day Weather Forecast

Advertisements
Track Severe Weather on mobile